Time;durP1;ratioP1;P1;durP2;ratioP2;P2;SDS_P1;SDS_P2;PMS_P1;PMS_P2;Temp;Humidity;BMP_temperature;BMP_pressure;BME280_temperature;BME280_humidity;BME280_pressure;Samples;Min_cycle;Max_cycle;Signal;HPM_P1;HPM_P2
2024/01/02 00:01:26;;;;;;;14.25;5.97;;;11.10;26.60;;;;;;5026118;28;20078;-78
2024/01/02 00:03:51;;;;;;;11.90;5.20;;;10.50;47.50;;;;;;5022832;28;20073;-78
2024/01/02 00:06:17;;;;;;;13.77;5.45;;;12.40;29.80;;;;;;5009595;28;20051;-80
2024/01/02 00:08:43;;;;;;;12.02;4.43;;;10.60;66.10;;;;;;5012549;28;20041;-76
2024/01/02 00:11:09;;;;;;;13.30;5.28;;;12.80;48.70;;;;;;5023198;28;20071;-81
2024/01/02 00:13:35;;;;;;;11.45;5.18;;;12.50;82.10;;;;;;5055236;28;20041;-82
2024/01/02 00:16:01;;;;;;;16.35;5.70;;;11.50;66.20;;;;;;5023292;28;21463;-80
2024/01/02 00:18:26;;;;;;;15.27;5.80;;;11.00;1.00;;;;;;5038535;28;20037;-78
2024/01/02 00:20:52;;;;;;;16.95;5.82;;;11.20;1.90;;;;;;5042266;28;20037;-77
2024/01/02 00:23:18;;;;;;;15.57;5.43;;;10.40;1.00;;;;;;5035488;28;20057;-77
2024/01/02 00:25:44;;;;;;;11.75;4.95;;;12.80;1.00;;;;;;5038699;28;20477;-79
2024/01/02 00:28:11;;;;;;;10.25;4.10;;;10.40;1.00;;;;;;5024274;28;20496;-75
2024/01/02 00:30:37;;;;;;;13.75;5.10;;;12.50;1.00;;;;;;5044778;28;20064;-83
2024/01/02 00:33:03;;;;;;;10.43;4.20;;;12.20;1.00;;;;;;5012992;28;20362;-78
2024/01/02 00:35:29;;;;;;;11.45;3.72;;;11.40;1.00;;;;;;5042883;28;20052;-77
2024/01/02 00:37:55;;;;;;;14.50;5.15;;;10.60;1.00;;;;;;5043180;28;20086;-79
2024/01/02 00:40:21;;;;;;;11.32;4.40;;;10.30;1.00;;;;;;5043970;28;20049;-77
2024/01/02 00:42:46;;;;;;;14.27;4.57;;;12.90;1.00;;;;;;5045543;28;20090;-79
2024/01/02 00:45:12;;;;;;;15.10;4.20;;;12.50;1.00;;;;;;5044673;28;21028;-81
2024/01/02 00:47:38;;;;;;;10.27;4.18;;;11.60;1.00;;;;;;5044467;28;20033;-79
2024/01/02 00:50:04;;;;;;;11.02;4.07;;;11.00;1.00;;;;;;5013642;28;20044;-78
2024/01/02 00:52:29;;;;;;;13.98;4.57;;;12.10;1.00;;;;;;5012821;28;20040;-76
2024/01/02 00:54:55;;;;;;;10.13;4.20;;;12.90;1.00;;;;;;5042688;28;20044;-75
2024/01/02 00:57:21;;;;;;;9.02;4.15;;;12.30;1.00;;;;;;5026066;28;20043;-76
2024/01/02 00:59:47;;;;;;;11.88;4.78;;;10.80;1.00;;;;;;5042620;28;20045;-77
2024/01/02 01:02:12;;;;;;;10.85;4.63;;;11.50;1.00;;;;;;5043406;28;20049;-78
2024/01/02 01:04:48;;;;;;;12.00;3.30;;;13.00;1.00;;;;;;5041042;28;20045;-76
2024/01/02 01:07:14;;;;;;;11.30;4.32;;;12.40;1.00;;;;;;5012797;28;20042;-76
2024/01/02 01:09:39;;;;;;;15.73;4.03;;;10.50;1.00;;;;;;5042651;28;20508;-78
2024/01/02 01:12:06;;;;;;;11.60;4.00;;;12.70;1.00;;;;;;5061707;28;20174;-80
2024/01/02 01:14:31;;;;;;;7.25;3.38;;;13.00;13.90;;;;;;5055221;28;20056;-79
2024/01/02 01:16:58;;;;;;;10.50;3.63;;;10.40;25.50;;;;;;5059137;28;20040;-79
2024/01/02 01:19:24;;;;;;;12.55;4.03;;;12.60;50.50;;;;;;5027103;28;20033;-78
2024/01/02 01:21:56;;;;;;;8.07;2.95;;;12.30;72.40;;;;;;5041674;28;20049;-79
2024/01/02 01:24:21;;;;;;;7.10;3.17;;;12.10;52.50;;;;;;5028150;28;20102;-76
2024/01/02 01:26:52;;;;;;;9.77;3.70;;;12.40;89.60;;;;;;5041568;28;20041;-80
2024/01/02 01:29:21;;;;;;;10.18;3.33;;;12.90;99.90;;;;;;5042952;28;22013;-77
2024/01/02 01:31:47;;;;;;;9.88;3.45;;;11.30;99.90;;;;;;5026742;28;20115;-81
2024/01/02 01:34:13;;;;;;;10.35;3.38;;;12.00;99.90;;;;;;5044233;28;20099;-77
2024/01/02 01:36:38;;;;;;;10.80;2.97;;;12.20;99.90;;;;;;5024837;28;20041;-81
2024/01/02 01:39:07;;;;;;;7.68;2.78;;;10.40;99.90;;;;;;5042498;28;20132;-79
2024/01/02 01:41:32;;;;;;;10.38;2.92;;;12.00;99.90;;;;;;5025336;28;20049;-77
2024/01/02 01:43:58;;;;;;;8.77;3.20;;;12.30;99.90;;;;;;5026825;28;20392;-78
2024/01/02 01:46:37;;;;;;;8.00;3.03;;;11.70;99.90;;;;;;5026799;28;20046;-77
2024/01/02 01:49:05;;;;;;;10.55;3.60;;;12.60;1.00;;;;;;5042982;28;20036;-81
2024/01/02 01:51:32;;;;;;;9.40;3.58;;;11.10;1.00;;;;;;5045921;28;20400;-80
2024/01/02 01:54:02;;;;;;;11.23;3.53;;;11.80;14.50;;;;;;5025361;28;20044;-77
2024/01/02 01:56:32;;;;;;;9.18;3.30;;;12.70;99.90;;;;;;5027230;28;20754;-78
2024/01/02 01:58:59;;;;;;;7.30;2.67;;;12.50;99.90;;;;;;5074595;28;20428;-78
2024/01/02 02:01:28;;;;;;;10.55;3.10;;;12.40;99.90;;;;;;5043228;28;20426;-79
2024/01/02 02:03:55;;;;;;;9.02;3.03;;;10.40;99.90;;;;;;5026412;28;20068;-84
2024/01/02 02:06:21;;;;;;;10.25;3.53;;;12.50;99.90;;;;;;5011044;28;20071;-77
2024/01/02 02:08:47;;;;;;;8.10;3.85;;;11.60;99.90;;;;;;5037918;28;20604;-80
2024/01/02 02:11:14;;;;;;;9.07;3.42;;;11.10;99.90;;;;;;5008845;28;20040;-80
2024/01/02 02:13:41;;;;;;;10.50;3.95;;;11.10;99.90;;;;;;5008767;28;20045;-82
2024/01/02 02:16:07;;;;;;;10.10;3.83;;;12.60;99.90;;;;;;5042334;28;20040;-84
2024/01/02 02:18:32;;;;;;;9.35;4.88;;;10.30;99.90;;;;;;5027654;28;20382;-81
2024/01/02 02:20:58;;;;;;;11.05;3.67;;;12.30;99.90;;;;;;5011067;28;20075;-79
2024/01/02 02:23:24;;;;;;;9.45;4.82;;;10.30;99.90;;;;;;5008375;28;20029;-81
2024/01/02 02:25:49;;;;;;;15.95;5.93;;;12.50;99.90;;;;;;5074968;28;20052;-81
2024/01/02 02:28:15;;;;;;;10.70;4.90;;;10.90;99.90;;;;;;5045292;28;20055;-80
2024/01/02 02:30:41;;;;;;;11.20;5.45;;;10.70;99.90;;;;;;5007902;28;20114;-82
2024/01/02 02:33:07;;;;;;;13.55;6.30;;;13.10;99.90;;;;;;5030187;28;20115;-81
2024/01/02 02:35:32;;;;;;;12.85;5.53;;;12.30;99.90;;;;;;5008237;28;20041;-79
2024/01/02 02:37:58;;;;;;;17.45;7.20;;;12.60;99.90;;;;;;5059174;28;20047;-81
2024/01/02 02:40:25;;;;;;;16.92;7.43;;;11.70;99.90;;;;;;5039939;28;20063;-80
2024/01/02 02:42:51;;;;;;;18.08;7.20;;;10.80;99.90;;;;;;5041886;28;20046;-84
2024/01/02 02:45:16;;;;;;;16.10;6.80;;;10.90;99.90;;;;;;5058711;28;20049;-79
2024/01/02 02:47:42;;;;;;;16.92;7.97;;;12.50;99.90;;;;;;5023904;28;20053;-80
2024/01/02 02:50:08;;;;;;;17.13;7.80;;;12.80;99.90;;;;;;5026043;28;20123;-76
2024/01/02 02:52:34;;;;;;;15.45;8.80;;;11.00;99.90;;;;;;5026891;28;20037;-81
2024/01/02 02:55:00;;;;;;;13.50;7.88;;;13.30;99.90;;;;;;5023293;28;20045;-82
2024/01/02 02:57:25;;;;;;;13.48;8.10;;;12.90;99.90;;;;;;5025544;28;20036;-82
2024/01/02 02:59:51;;;;;;;16.23;9.20;;;10.40;99.90;;;;;;5018040;28;20033;-86
2024/01/02 03:02:17;;;;;;;18.70;9.20;;;13.40;99.90;;;;;;5041508;28;20041;-83
2024/01/02 03:04:49;;;;;;;14.60;8.20;;;12.70;99.90;;;;;;5042369;28;20080;-84
2024/01/02 03:07:15;;;;;;;10.40;7.03;;;10.70;99.90;;;;;;5031512;28;20041;-82
2024/01/02 03:09:44;;;;;;;14.00;9.10;;;12.90;99.90;;;;;;5034268;28;20060;-83
2024/01/02 03:12:11;;;;;;;14.10;8.57;;;11.80;99.90;;;;;;5065431;28;20064;-83
2024/01/02 03:14:37;;;;;;;20.27;10.32;;;11.60;99.90;;;;;;5030375;28;20532;-84
2024/01/02 03:17:04;;;;;;;16.38;8.68;;;10.70;99.90;;;;;;5045795;28;20499;-84
2024/01/02 03:19:30;;;;;;;16.23;9.38;;;10.90;99.90;;;;;;5077499;28;20040;-79
2024/01/02 03:21:55;;;;;;;14.18;9.70;;;10.90;99.90;;;;;;5013664;28;20390;-79
2024/01/02 03:24:21;;;;;;;19.65;10.60;;;12.90;99.90;;;;;;5034669;28;20132;-80
2024/01/02 03:26:47;;;;;;;20.10;10.55;;;10.40;99.90;;;;;;5016676;28;20083;-82
2024/01/02 03:29:13;;;;;;;18.08;9.50;;;11.10;99.90;;;;;;5062617;28;20045;-83
2024/01/02 03:31:38;;;;;;;17.60;9.20;;;13.10;99.90;;;;;;5047253;28;20098;-82
2024/01/02 03:34:04;;;;;;;15.13;9.02;;;13.40;99.90;;;;;;5029222;28;20075;-83
2024/01/02 03:36:30;;;;;;;16.02;9.30;;;12.40;99.90;;;;;;5061595;28;20098;-80
2024/01/02 03:38:56;;;;;;;11.95;7.95;;;10.60;99.90;;;;;;5011243;28;20489;-83
2024/01/02 03:41:21;;;;;;;14.60;8.90;;;12.70;99.90;;;;;;5033303;28;20044;-83
2024/01/02 03:43:47;;;;;;;19.48;8.75;;;10.90;99.90;;;;;;5044695;28;20041;-80
2024/01/02 03:46:13;;;;;;;12.88;7.15;;;12.00;99.90;;;;;;5046367;28;20059;-81
2024/01/02 03:48:39;;;;;;;10.43;6.07;;;10.90;99.90;;;;;;5045781;28;20083;-79
2024/01/02 03:51:04;;;;;;;12.77;8.00;;;10.50;99.90;;;;;;5030277;28;20504;-79
2024/01/02 03:53:30;;;;;;;15.70;7.43;;;11.10;99.90;;;;;;5046857;28;20051;-81
2024/01/02 03:55:57;;;;;;;15.10;6.90;;;12.90;99.90;;;;;;5050039;28;20370;-79
2024/01/02 03:58:23;;;;;;;10.25;6.57;;;13.50;99.90;;;;;;5062082;28;20424;-82
2024/01/02 04:00:53;;;;;;;12.05;6.60;;;12.60;99.90;;;;;;5026628;28;20074;-77
2024/01/02 04:03:19;;;;;;;10.68;6.55;;;12.60;99.90;;;;;;5045603;28;20033;-82
2024/01/02 04:05:45;;;;;;;11.00;5.60;;;12.40;99.90;;;;;;5050753;28;20512;-83
2024/01/02 04:08:11;;;;;;;10.82;5.82;;;12.50;99.90;;;;;;5030094;28;20044;-84
2024/01/02 04:10:39;;;;;;;10.50;6.20;;;12.50;99.90;;;;;;5043474;28;20042;-82
2024/01/02 04:13:05;;;;;;;12.30;6.32;;;11.30;99.90;;;;;;5029291;28;20067;-84
2024/01/02 04:15:30;;;;;;;10.13;6.22;;;10.60;99.90;;;;;;5046057;28;20041;-82
2024/01/02 04:17:56;;;;;;;10.20;5.53;;;13.20;99.90;;;;;;5064722;28;20493;-80
2024/01/02 04:20:22;;;;;;;10.18;6.28;;;13.10;99.90;;;;;;5028224;28;20364;-82
2024/01/02 04:22:49;;;;;;;10.25;6.57;;;11.20;99.90;;;;;;5026957;28;20037;-81
2024/01/02 04:25:15;;;;;;;10.57;6.50;;;11.60;99.90;;;;;;5028370;28;20397;-82
2024/01/02 04:27:40;;;;;;;9.45;6.07;;;10.50;99.90;;;;;;5049076;28;20045;-85
2024/01/02 04:30:07;;;;;;;11.60;6.55;;;12.80;99.90;;;;;;5044116;28;20135;-80
2024/01/02 04:32:33;;;;;;;11.63;6.50;;;12.60;99.90;;;;;;5028315;28;20041;-81
2024/01/02 04:34:59;;;;;;;11.50;7.03;;;12.90;99.90;;;;;;5026289;28;20063;-82
2024/01/02 04:37:25;;;;;;;12.55;6.45;;;13.20;99.90;;;;;;5011539;28;20417;-79
2024/01/02 04:39:51;;;;;;;8.82;5.05;;;12.70;99.90;;;;;;5010576;28;20165;-83
2024/01/02 04:42:16;;;;;;;9.93;6.40;;;13.10;99.90;;;;;;5028816;28;20403;-81
2024/01/02 04:44:42;;;;;;;11.82;6.80;;;10.80;99.90;;;;;;5025642;28;20041;-80
2024/01/02 04:47:08;;;;;;;10.65;6.70;;;10.70;99.90;;;;;;5018561;28;20561;-83
2024/01/02 04:49:33;;;;;;;15.98;6.93;;;11.40;99.90;;;;;;5011757;28;20540;-85
2024/01/02 04:51:59;;;;;;;9.93;6.10;;;10.60;99.90;;;;;;5010553;28;20044;-81
2024/01/02 04:54:25;;;;;;;10.00;5.95;;;11.60;99.90;;;;;;5047476;28;20049;-81
2024/01/02 04:56:51;;;;;;;10.20;5.38;;;11.10;99.90;;;;;;5027122;28;20040;-80
2024/01/02 04:59:17;;;;;;;9.30;5.50;;;10.80;99.90;;;;;;5026053;28;20037;-81
2024/01/02 05:01:43;;;;;;;10.25;5.05;;;12.90;99.90;;;;;;5012624;28;20080;-81
2024/01/02 05:04:08;;;;;;;8.00;5.50;;;11.30;99.90;;;;;;5029823;28;20063;-79
2024/01/02 05:06:35;;;;;;;7.95;4.60;;;10.90;99.90;;;;;;5045707;28;20037;-85
2024/01/02 05:09:01;;;;;;;12.85;5.47;;;11.20;99.90;;;;;;5026688;28;20144;-84
2024/01/02 05:11:26;;;;;;;7.93;4.82;;;13.10;99.90;;;;;;5025633;28;20140;-80
2024/01/02 05:13:52;;;;;;;7.47;3.95;;;13.30;99.90;;;;;;5041693;28;20080;-79
2024/01/02 05:16:18;;;;;;;8.68;4.85;;;13.50;99.90;;;;;;5029857;28;20037;-83
2024/01/02 05:18:45;;;;;;;9.90;5.10;;;12.90;99.90;;;;;;5042601;28;20128;-84
2024/01/02 05:21:10;;;;;;;8.48;5.30;;;11.30;99.90;;;;;;5026230;28;20532;-81
2024/01/02 05:23:36;;;;;;;10.82;5.60;;;11.30;99.90;;;;;;5026548;28;20056;-83
2024/01/02 05:26:02;;;;;;;8.23;4.95;;;11.90;99.90;;;;;;5026169;28;20060;-83
2024/01/02 05:28:29;;;;;;;7.72;4.88;;;12.50;99.90;;;;;;5044245;28;20045;-80
2024/01/02 05:30:54;;;;;;;7.70;4.60;;;11.40;99.90;;;;;;5014011;28;20069;-79
2024/01/02 05:33:20;;;;;;;7.03;4.38;;;12.40;99.90;;;;;;5011563;28;20087;-82
2024/01/02 05:35:46;;;;;;;8.13;5.07;;;12.40;99.90;;;;;;5027487;28;20135;-81
2024/01/02 05:38:12;;;;;;;6.40;3.90;;;11.90;99.90;;;;;;5008338;28;20072;-85
2024/01/02 05:40:38;;;;;;;5.55;3.45;;;11.50;99.90;;;;;;5009660;28;20053;-84
2024/01/02 05:43:05;;;;;;;6.78;4.35;;;11.10;99.90;;;;;;5043998;28;20187;-85
2024/01/02 05:45:30;;;;;;;5.20;3.92;;;12.20;99.90;;;;;;5049861;28;20048;-85
2024/01/02 05:47:56;;;;;;;5.07;3.45;;;12.80;99.90;;;;;;5064700;28;20463;-80
2024/01/02 05:50:22;;;;;;;7.68;3.75;;;11.50;99.90;;;;;;5014961;28;20041;-82
2024/01/02 05:52:47;;;;;;;5.82;3.85;;;12.80;99.90;;;;;;5046585;28;20475;-84
2024/01/02 05:55:13;;;;;;;4.70;2.97;;;12.70;99.90;;;;;;5020707;28;20037;-81
2024/01/02 05:57:39;;;;;;;5.90;3.80;;;11.50;99.90;;;;;;5025543;28;20051;-82
2024/01/02 06:00:05;;;;;;;5.32;3.42;;;12.30;99.90;;;;;;5042079;28;20036;-81
2024/01/02 06:02:32;;;;;;;7.35;3.33;;;12.50;99.90;;;;;;5039597;28;20409;-83
2024/01/02 06:04:58;;;;;;;5.75;3.95;;;11.40;99.90;;;;;;5020275;28;20094;-83
2024/01/02 06:07:23;;;;;;;4.25;2.90;;;11.60;99.90;;;;;;5019917;28;20128;-86
2024/01/02 06:09:55;;;;;;;6.47;3.42;;;12.60;99.90;;;;;;5057414;28;20055;-83
2024/01/02 06:12:21;;;;;;;4.90;2.60;;;12.60;99.90;;;;;;5039368;28;20041;-84
2024/01/02 06:14:47;;;;;;;4.45;2.80;;;11.40;99.90;;;;;;5045712;28;20037;-81
2024/01/02 06:17:12;;;;;;;3.70;2.15;;;12.50;99.90;;;;;;4999749;28;20106;-84
2024/01/02 06:19:38;;;;;;;3.85;2.28;;;12.80;99.90;;;;;;5034130;28;20110;-83
2024/01/02 06:22:03;;;;;;;4.18;2.70;;;11.30;99.90;;;;;;5013028;28;20076;-87
2024/01/02 06:24:30;;;;;;;2.30;1.77;;;11.50;99.90;;;;;;5024832;28;20041;-86
2024/01/02 06:26:56;;;;;;;3.40;1.77;;;11.20;99.90;;;;;;5044747;28;20041;-85
2024/01/02 06:29:28;;;;;;;2.28;1.73;;;12.70;99.90;;;;;;5027260;28;20079;-84
2024/01/02 06:31:53;;;;;;;4.25;2.10;;;12.70;99.90;;;;;;5029877;28;20033;-83
2024/01/02 06:34:19;;;;;;;3.45;1.75;;;11.30;99.90;;;;;;5061427;28;20045;-84
2024/01/02 06:36:45;;;;;;;4.28;1.50;;;12.80;99.90;;;;;;5027329;28;20047;-87
2024/01/02 06:39:11;;;;;;;3.00;1.80;;;12.70;99.90;;;;;;5047174;28;20041;-83
2024/01/02 06:41:36;;;;;;;2.22;1.50;;;13.00;99.90;;;;;;5030737;28;20124;-82
2024/01/02 06:44:02;;;;;;;2.30;1.70;;;12.50;99.90;;;;;;5048052;28;20056;-82
2024/01/02 06:46:28;;;;;;;2.42;1.60;;;11.30;99.90;;;;;;5037799;28;20072;-84
2024/01/02 06:48:53;;;;;;;1.92;1.60;;;12.70;99.90;;;;;;5017099;28;20131;-83
2024/01/02 06:51:21;;;;;;;1.77;1.60;;;13.20;99.90;;;;;;5045472;28;20094;-81
2024/01/02 06:53:46;;;;;;;2.15;1.60;;;11.20;99.90;;;;;;5036950;28;20040;-82
2024/01/02 06:56:12;;;;;;;2.05;1.55;;;12.60;99.90;;;;;;5047470;28;20047;-85
2024/01/02 06:58:44;;;;;;;2.25;1.65;;;12.80;99.90;;;;;;5060253;28;20042;-84
2024/01/02 07:01:12;;;;;;;2.22;1.80;;;11.80;99.90;;;;;;5029470;28;21898;-81
2024/01/02 07:03:38;;;;;;;2.45;2.25;;;11.50;99.90;;;;;;5040242;28;20042;-85
2024/01/02 07:06:03;;;;;;;1.77;1.60;;;12.90;99.90;;;;;;5012365;28;20737;-77
2024/01/02 07:08:29;;;;;;;3.33;2.55;;;12.70;99.90;;;;;;5034945;28;20033;-81
2024/01/02 07:10:55;;;;;;;4.15;2.30;;;12.60;99.90;;;;;;5035041;28;20119;-78
2024/01/02 07:13:20;;;;;;;2.50;2.10;;;12.00;99.90;;;;;;5035802;28;20037;-81
2024/01/02 07:15:46;;;;;;;3.15;2.70;;;12.80;99.90;;;;;;5020423;28;20041;-83
2024/01/02 07:18:12;;;;;;;2.90;2.45;;;11.10;99.90;;;;;;5019294;28;20400;-83
2024/01/02 07:20:37;;;;;;;3.58;2.50;;;12.10;99.90;;;;;;5017777;28;20076;-77
2024/01/02 07:23:03;;;;;;;3.05;2.72;;;11.30;99.90;;;;;;5036137;28;20485;-76
2024/01/02 07:25:29;;;;;;;3.13;2.80;;;12.50;99.90;;;;;;5052259;28;20123;-82
2024/01/02 07:27:55;;;;;;;2.50;2.30;;;11.30;99.90;;;;;;5042817;28;20044;-83
2024/01/02 07:30:20;;;;;;;2.10;1.90;;;12.10;99.90;;;;;;5033845;28;20630;-81
2024/01/02 07:32:46;;;;;;;2.70;2.50;;;12.40;99.90;;;;;;5052107;28;20072;-77
2024/01/02 07:35:11;;;;;;;2.15;1.98;;;11.50;99.90;;;;;;5051716;28;20041;-74
2024/01/02 07:37:37;;;;;;;2.42;2.22;;;12.40;99.90;;;;;;5051913;28;20087;-80
2024/01/02 07:40:03;;;;;;;2.85;2.65;;;12.20;99.90;;;;;;5059188;28;20128;-78
2024/01/02 07:42:29;;;;;;;2.95;2.75;;;12.40;99.90;;;;;;5059413;28;20393;-76
2024/01/02 07:44:55;;;;;;;3.90;3.53;;;12.40;99.90;;;;;;5051971;28;20074;-82
2024/01/02 07:47:20;;;;;;;4.18;3.78;;;12.30;99.90;;;;;;5032609;28;20405;-80
2024/01/02 07:49:46;;;;;;;5.03;4.55;;;12.40;99.90;;;;;;5012276;28;20043;-76
2024/01/02 07:52:12;;;;;;;4.90;4.30;;;11.90;99.90;;;;;;5044020;28;20048;-78
2024/01/02 07:54:40;;;;;;;5.18;4.68;;;11.70;99.90;;;;;;5019243;28;20037;-81
2024/01/02 07:57:06;;;;;;;4.03;3.72;;;12.30;99.90;;;;;;5042742;28;20033;-79
2024/01/02 07:59:32;;;;;;;4.30;3.90;;;11.80;99.90;;;;;;5028811;28;20059;-81
2024/01/02 08:01:58;;;;;;;4.38;4.07;;;11.80;99.90;;;;;;5036864;28;20033;-73
2024/01/02 08:04:24;;;;;;;5.85;5.13;;;11.90;99.90;;;;;;5035122;28;20037;-80
2024/01/02 08:06:50;;;;;;;5.18;4.68;;;12.50;99.90;;;;;;5058102;28;20045;-80
2024/01/02 08:09:16;;;;;;;4.38;4.00;;;12.30;99.90;;;;;;5034678;28;20428;-81
2024/01/02 08:11:41;;;;;;;4.63;4.18;;;12.00;99.90;;;;;;5031356;28;20045;-81
2024/01/02 08:14:07;;;;;;;4.53;4.13;;;12.00;99.90;;;;;;5051072;28;20069;-81
2024/01/02 08:16:33;;;;;;;4.68;4.28;;;12.80;99.90;;;;;;5050093;28;20048;-81
2024/01/02 08:18:59;;;;;;;4.32;3.92;;;12.30;99.90;;;;;;5047386;28;20044;-82
2024/01/02 08:21:26;;;;;;;4.40;4.00;;;12.00;99.90;;;;;;5053602;28;20056;-78
2024/01/02 08:23:52;;;;;;;4.78;4.30;;;12.20;99.90;;;;;;5011182;28;20041;-80
2024/01/02 08:26:18;;;;;;;4.82;4.32;;;12.30;99.90;;;;;;5050302;28;20025;-74
2024/01/02 08:28:44;;;;;;;3.85;3.45;;;12.60;99.90;;;;;;5068181;28;20032;-79
2024/01/02 08:31:10;;;;;;;4.32;3.92;;;12.30;99.90;;;;;;5051388;28;20094;-72
2024/01/02 08:33:36;;;;;;;4.80;4.30;;;12.10;99.90;;;;;;5051300;28;20526;-75
2024/01/02 08:36:02;;;;;;;4.70;4.22;;;12.80;99.90;;;;;;5051252;28;20033;-77
2024/01/02 08:38:28;;;;;;;4.85;4.35;;;12.10;99.90;;;;;;5034445;28;20082;-75
2024/01/02 08:40:54;;;;;;;5.10;4.43;;;12.30;99.90;;;;;;5050979;28;20053;-75
2024/01/02 08:43:19;;;;;;;5.00;4.18;;;12.30;99.90;;;;;;5034255;28;20116;-72
2024/01/02 08:45:45;;;;;;;4.90;4.45;;;12.30;99.90;;;;;;5051104;28;20571;-78
2024/01/02 08:48:11;;;;;;;6.03;4.85;;;12.70;99.90;;;;;;5034748;28;20101;-77
2024/01/02 08:50:41;;;;;;;4.80;4.30;;;12.80;99.90;;;;;;5034579;28;20047;-75
2024/01/02 08:53:11;;;;;;;5.68;5.10;;;12.50;99.90;;;;;;5035104;28;20045;-73
2024/01/02 08:55:37;;;;;;;7.00;5.75;;;12.80;99.90;;;;;;5033947;28;20120;-82
2024/01/02 08:58:03;;;;;;;9.02;6.68;;;12.50;99.90;;;;;;5034194;28;20610;-78
2024/01/02 09:00:29;;;;;;;7.97;6.20;;;12.70;99.90;;;;;;5034278;28;20124;-75
2024/01/02 09:02:55;;;;;;;7.47;5.28;;;12.50;99.90;;;;;;5051001;28;20120;-77
2024/01/02 09:05:21;;;;;;;9.35;5.65;;;12.80;99.90;;;;;;5033850;28;20473;-76
2024/01/02 09:07:46;;;;;;;10.77;7.80;;;13.20;99.90;;;;;;5050505;28;20049;-78
2024/01/02 09:10:13;;;;;;;10.20;7.53;;;13.30;99.90;;;;;;5047503;28;20477;-76
2024/01/02 09:12:39;;;;;;;12.68;7.45;;;12.50;99.90;;;;;;5035247;28;20121;-76
2024/01/02 09:15:06;;;;;;;13.77;8.00;;;12.70;99.90;;;;;;5034167;28;20374;-76
2024/01/02 09:17:32;;;;;;;17.40;8.70;;;13.40;99.90;;;;;;5050140;28;20056;-74
2024/01/02 09:19:58;;;;;;;12.70;8.38;;;13.30;99.90;;;;;;5067774;28;20041;-79
2024/01/02 09:22:24;;;;;;;19.77;9.40;;;13.10;99.90;;;;;;5062723;28;20428;-80
2024/01/02 09:24:51;;;;;;;14.90;8.48;;;13.60;99.90;;;;;;5050212;28;20056;-76
2024/01/02 09:27:18;;;;;;;19.88;8.32;;;13.40;99.90;;;;;;5050137;28;20048;-76
2024/01/02 09:29:44;;;;;;;16.65;8.32;;;13.40;99.90;;;;;;5050414;28;20037;-79
2024/01/02 09:32:10;;;;;;;17.33;8.43;;;13.90;99.90;;;;;;5050578;28;20458;-76
2024/01/02 09:34:36;;;;;;;21.38;8.02;;;13.70;99.90;;;;;;5032945;28;20041;-76
2024/01/02 09:37:04;;;;;;;32.78;7.53;;;13.40;99.90;;;;;;5051852;28;20156;-78
2024/01/02 09:39:30;;;;;;;19.70;5.80;;;14.30;99.90;;;;;;5013518;28;20053;-74
2024/01/02 09:42:23;;;;;;;22.77;5.57;;;13.80;99.90;;;;;;5014055;28;20041;-77
2024/01/02 09:45:29;;;;;;;22.08;5.55;;;14.10;99.90;;;;;;5030315;28;20052;-76
2024/01/02 09:48:03;;;;;;;24.50;5.78;;;14.10;99.90;;;;;;5044240;28;20084;-77
2024/01/02 09:50:38;;;;;;;23.15;5.80;;;14.20;99.90;;;;;;5053502;28;20049;-79
2024/01/02 09:53:22;;;;;;;24.20;5.55;;;13.90;99.90;;;;;;5033420;28;20056;-75
2024/01/02 09:55:58;;;;;;;28.83;6.30;;;14.60;99.90;;;;;;5049971;28;20119;-79
2024/01/02 09:58:34;;;;;;;18.75;5.13;;;14.40;99.90;;;;;;5032997;28;20041;-79
2024/01/02 10:01:21;;;;;;;21.75;5.18;;;14.50;99.90;;;;;;5049982;28;20045;-75
2024/01/02 10:04:17;;;;;;;26.05;6.00;;;14.60;99.90;;;;;;5049890;28;20066;-80
2024/01/02 10:07:07;;;;;;;31.85;6.45;;;14.30;99.90;;;;;;5032689;28;20041;-77
2024/01/02 10:09:42;;;;;;;21.88;5.60;;;14.60;99.90;;;;;;5049156;28;20037;-78
2024/01/02 10:12:32;;;;;;;24.67;4.80;;;14.40;99.90;;;;;;5049965;28;20045;-77
2024/01/02 10:15:25;;;;;;;21.85;5.35;;;14.90;99.90;;;;;;5049606;28;20132;-79
2024/01/02 10:18:19;;;;;;;26.20;5.63;;;14.50;99.90;;;;;;5049028;28;20045;-76
2024/01/02 10:20:58;;;;;;;20.08;4.30;;;14.70;99.90;;;;;;5049845;28;20036;-74
2024/01/02 10:23:40;;;;;;;19.88;4.35;;;14.60;99.90;;;;;;5032641;28;20091;-80
2024/01/02 10:26:08;;;;;;;17.17;4.32;;;14.70;99.90;;;;;;5049851;28;20397;-78
2024/01/02 10:28:36;;;;;;;27.58;5.18;;;14.80;99.90;;;;;;5032046;28;20052;-73
2024/01/02 10:31:25;;;;;;;23.90;4.35;;;14.90;99.90;;;;;;5066147;28;20440;-76
2024/01/02 10:33:53;;;;;;;26.70;4.55;;;14.70;99.90;;;;;;5029615;28;20409;-80
2024/01/02 10:36:23;;;;;;;21.15;4.22;;;14.70;99.90;;;;;;5026486;28;20060;-77
2024/01/02 10:39:12;;;;;;;21.95;5.10;;;14.60;99.90;;;;;;5045909;28;20038;-77
2024/01/02 10:41:47;;;;;;;27.48;5.43;;;15.00;99.90;;;;;;5029031;28;20110;-77
2024/01/02 10:44:21;;;;;;;;;;;14.80;99.90;;;;;;5038454;28;20075;-76
2024/01/02 10:46:54;;;;;;;23.08;4.65;;;14.60;99.90;;;;;;5049296;28;20007;-80
2024/01/02 10:49:32;;;;;;;23.40;4.57;;;14.90;99.90;;;;;;5049357;28;20056;-76
2024/01/02 10:52:05;;;;;;;23.50;5.05;;;15.10;99.90;;;;;;5049180;28;20049;-80
2024/01/02 10:54:47;;;;;;;24.45;4.60;;;15.00;99.90;;;;;;5048818;28;20517;-78
2024/01/02 10:57:20;;;;;;;19.92;4.40;;;14.80;99.90;;;;;;5049067;28;20044;-77
2024/01/02 11:00:00;;;;;;;22.55;4.30;;;14.90;99.90;;;;;;5049377;28;20094;-79
2024/01/02 11:02:47;;;;;;;21.85;4.57;;;15.30;99.90;;;;;;5048458;28;20112;-78
2024/01/02 11:05:26;;;;;;;23.42;4.88;;;14.80;99.90;;;;;;5032768;28;20048;-77
2024/01/02 11:08:23;;;;;;;17.00;5.07;;;15.20;99.90;;;;;;5070262;28;20057;-82
2024/01/02 11:11:00;;;;;;;28.75;10.40;;;15.30;99.90;;;;;;5013093;28;20073;-77
2024/01/02 11:13:27;;;;;;;42.95;16.05;;;15.30;99.90;;;;;;5062006;28;20501;-78
2024/01/02 11:16:06;;;;;;;53.13;20.05;;;15.40;99.90;;;;;;5029119;28;20441;-80
2024/01/02 11:18:34;;;;;;;54.20;22.55;;;15.10;99.90;;;;;;5042541;28;20037;-80
2024/01/02 11:21:01;;;;;;;50.60;22.55;;;15.10;99.90;;;;;;5049050;28;20045;-77
2024/01/02 11:23:30;;;;;;;58.78;24.52;;;15.70;99.90;;;;;;5048288;28;20116;-77
2024/01/02 11:25:58;;;;;;;51.60;24.58;;;15.50;99.90;;;;;;5065645;28;20045;-74
2024/01/02 11:28:25;;;;;;;52.90;22.75;;;15.70;99.90;;;;;;5049276;28;20048;-76
2024/01/02 11:30:52;;;;;;;50.63;22.48;;;15.50;99.90;;;;;;5031646;28;20057;-72
2024/01/02 11:33:36;;;;;;;51.28;21.63;;;15.20;99.90;;;;;;5036532;28;20406;-77
2024/01/02 11:36:16;;;;;;;45.88;19.73;;;15.60;99.90;;;;;;5052881;28;20060;-71
2024/01/02 11:39:05;;;;;;;50.92;18.83;;;15.40;99.90;;;;;;5052566;28;20385;-75
2024/01/02 11:42:06;;;;;;;41.22;15.98;;;15.20;99.90;;;;;;5051715;28;20053;-76
2024/01/02 11:45:04;;;;;;;35.97;15.38;;;15.10;99.90;;;;;;5050037;28;20533;-79
2024/01/02 11:47:46;;;;;;;36.85;14.30;;;15.00;99.90;;;;;;5035417;28;20056;-74
2024/01/02 11:50:15;;;;;;;34.72;12.73;;;15.80;99.90;;;;;;5052774;28;20386;-75
2024/01/02 11:52:58;;;;;;;32.67;11.80;;;15.00;99.90;;;;;;5018565;28;20128;-74
2024/01/02 11:55:45;;;;;;;30.52;10.35;;;15.90;99.90;;;;;;5047215;28;20037;-82
2024/01/02 11:58:23;;;;;;;29.05;9.32;;;15.60;99.90;;;;;;5050210;28;20127;-83
2024/01/02 12:01:04;;;;;;;38.58;10.48;;;16.00;99.90;;;;;;5065368;28;20481;-80
2024/01/02 12:03:46;;;;;;;30.90;8.88;;;15.00;99.90;;;;;;5066753;28;20072;-81
2024/01/02 12:06:44;;;;;;;27.17;8.32;;;15.90;99.90;;;;;;5051795;28;20397;-77
2024/01/02 12:09:16;;;;;;;25.27;8.27;;;15.10;99.90;;;;;;5048424;28;20387;-77
2024/01/02 12:12:05;;;;;;;23.92;7.78;;;16.10;99.90;;;;;;5051694;28;20135;-79
2024/01/02 12:14:36;;;;;;;24.73;7.25;;;16.10;99.90;;;;;;5035137;28;20098;-79
2024/01/02 12:17:05;;;;;;;26.45;7.55;;;16.30;99.90;;;;;;5052031;28;20538;-79
2024/01/02 12:19:34;;;;;;;26.88;6.65;;;15.00;99.90;;;;;;5051540;28;20063;-82
2024/01/02 12:22:00;;;;;;;26.70;7.15;;;14.80;99.90;;;;;;5051483;28;20044;-77
2024/01/02 12:24:28;;;;;;;25.60;6.65;;;14.70;99.90;;;;;;5068819;28;20378;-83
2024/01/02 12:26:55;;;;;;;28.60;7.25;;;16.40;99.90;;;;;;5068392;28;20048;-84
2024/01/02 12:29:56;;;;;;;26.98;7.13;;;15.20;99.90;;;;;;5034674;28;20037;-83
2024/01/02 12:33:06;;;;;;;25.63;6.32;;;15.10;99.90;;;;;;5049307;28;20053;-82
2024/01/02 12:35:44;;;;;;;31.05;6.60;;;15.00;99.90;;;;;;5041200;28;20389;-78
2024/01/02 12:38:16;;;;;;;32.45;7.15;;;15.90;99.90;;;;;;5051485;28;20045;-81
2024/01/02 12:40:46;;;;;;;26.02;6.82;;;16.40;99.90;;;;;;5050764;28;20041;-78
2024/01/02 12:43:17;;;;;;;27.35;5.78;;;15.00;99.90;;;;;;5018336;28;20377;-85
2024/01/02 12:45:46;;;;;;;30.10;6.20;;;16.40;99.90;;;;;;5034343;28;20055;-82
2024/01/02 12:48:17;;;;;;;34.47;6.05;;;16.60;99.90;;;;;;5051801;28;20124;-77
2024/01/02 12:50:49;;;;;;;23.83;5.32;;;14.50;99.90;;;;;;5059307;28;20033;-77